sensor_id;sensor_type;location;lat;lon;timestamp;P1;durP1;ratioP1;P2;durP2;ratioP2
28796;SDS011;24974;54.444;18.560;2022-10-26T05:44:12;26.55;;;13.60;;
28796;SDS011;24974;54.444;18.560;2022-10-26T05:46:43;22.35;;;14.25;;
28796;SDS011;24974;54.444;18.560;2022-10-26T05:49:16;23.42;;;13.13;;
28796;SDS011;24974;54.444;18.560;2022-10-26T05:51:47;24.15;;;14.73;;
28796;SDS011;24974;54.444;18.560;2022-10-26T05:54:18;20.50;;;14.02;;
28796;SDS011;24974;54.444;18.560;2022-10-26T05:56:49;27.73;;;16.27;;
28796;SDS011;24974;54.444;18.560;2022-10-26T05:59:20;27.60;;;14.95;;
28796;SDS011;24974;54.444;18.560;2022-10-26T06:04:54;29.35;;;16.33;;
28796;SDS011;24974;54.444;18.560;2022-10-26T06:07:32;23.70;;;16.75;;
28796;SDS011;24974;54.444;18.560;2022-10-26T06:10:03;24.85;;;15.95;;
28796;SDS011;24974;54.444;18.560;2022-10-26T06:12:34;27.67;;;15.60;;
28796;SDS011;24974;54.444;18.560;2022-10-26T06:15:05;26.63;;;18.60;;
28796;SDS011;24974;54.444;18.560;2022-10-26T06:31:58;26.23;;;15.55;;
28796;SDS011;24974;54.444;18.560;2022-10-26T06:34:31;24.70;;;14.00;;
28796;SDS011;24974;54.444;18.560;2022-10-26T06:37:04;24.58;;;16.83;;
28796;SDS011;24974;54.444;18.560;2022-10-26T06:39:38;27.50;;;14.48;;
28796;SDS011;24974;54.444;18.560;2022-10-26T06:42:13;22.17;;;12.83;;
28796;SDS011;24974;54.444;18.560;2022-10-26T06:44:45;19.90;;;12.93;;
28796;SDS011;24974;54.444;18.560;2022-10-26T06:47:30;24.25;;;13.15;;
28796;SDS011;24974;54.444;18.560;2022-10-26T06:53:13;23.95;;;12.48;;
28796;SDS011;24974;54.444;18.560;2022-10-26T06:56:01;22.50;;;11.48;;
28796;SDS011;24974;54.444;18.560;2022-10-26T06:58:33;18.52;;;11.60;;
28796;SDS011;24974;54.444;18.560;2022-10-26T07:01:07;20.88;;;11.15;;
28796;SDS011;24974;54.444;18.560;2022-10-26T07:03:40;19.30;;;10.60;;
28796;SDS011;24974;54.444;18.560;2022-10-26T07:06:11;24.98;;;11.48;;
28796;SDS011;24974;54.444;18.560;2022-10-26T07:08:42;21.45;;;9.75;;
28796;SDS011;24974;54.444;18.560;2022-10-26T07:11:13;20.13;;;10.13;;
28796;SDS011;24974;54.444;18.560;2022-10-26T07:13:44;18.80;;;8.75;;
28796;SDS011;24974;54.444;18.560;2022-10-26T07:16:15;20.70;;;9.18;;
28796;SDS011;24974;54.444;18.560;2022-10-26T07:18:46;17.63;;;9.02;;
28796;SDS011;24974;54.444;18.560;2022-10-26T07:21:16;18.42;;;9.30;;
28796;SDS011;24974;54.444;18.560;2022-10-26T07:23:47;21.45;;;9.02;;
28796;SDS011;24974;54.444;18.560;2022-10-26T07:26:18;23.27;;;8.77;;
28796;SDS011;24974;54.444;18.560;2022-10-26T07:28:49;20.08;;;8.80;;
28796;SDS011;24974;54.444;18.560;2022-10-26T07:31:20;21.08;;;9.10;;
28796;SDS011;24974;54.444;18.560;2022-10-26T07:33:52;17.35;;;7.65;;
28796;SDS011;24974;54.444;18.560;2022-10-26T07:36:23;20.23;;;7.40;;
28796;SDS011;24974;54.444;18.560;2022-10-26T07:38:54;15.10;;;7.15;;
28796;SDS011;24974;54.444;18.560;2022-10-26T07:41:25;10.60;;;6.05;;
28796;SDS011;24974;54.444;18.560;2022-10-26T07:43:56;18.80;;;6.35;;
28796;SDS011;24974;54.444;18.560;2022-10-26T07:46:27;13.25;;;6.50;;
28796;SDS011;24974;54.444;18.560;2022-10-26T07:48:58;12.02;;;5.68;;
28796;SDS011;24974;54.444;18.560;2022-10-26T07:51:29;14.77;;;5.65;;
28796;SDS011;24974;54.444;18.560;2022-10-26T07:54:00;13.32;;;6.22;;
28796;SDS011;24974;54.444;18.560;2022-10-26T07:56:31;12.63;;;5.40;;
28796;SDS011;24974;54.444;18.560;2022-10-26T07:59:01;15.35;;;6.35;;
28796;SDS011;24974;54.444;18.560;2022-10-26T08:01:32;11.85;;;5.03;;
28796;SDS011;24974;54.444;18.560;2022-10-26T08:04:03;15.18;;;6.00;;
28796;SDS011;24974;54.444;18.560;2022-10-26T08:06:34;14.65;;;5.03;;
28796;SDS011;24974;54.444;18.560;2022-10-26T08:09:05;11.95;;;4.82;;
28796;SDS011;24974;54.444;18.560;2022-10-26T08:11:36;19.42;;;5.40;;
28796;SDS011;24974;54.444;18.560;2022-10-26T08:14:09;10.80;;;4.57;;
28796;SDS011;24974;54.444;18.560;2022-10-26T08:16:40;13.10;;;5.57;;
28796;SDS011;24974;54.444;18.560;2022-10-26T08:19:11;12.25;;;5.45;;
28796;SDS011;24974;54.444;18.560;2022-10-26T08:21:42;14.70;;;4.50;;
28796;SDS011;24974;54.444;18.560;2022-10-26T08:24:13;13.98;;;4.60;;
28796;SDS011;24974;54.444;18.560;2022-10-26T08:26:44;16.23;;;5.25;;
28796;SDS011;24974;54.444;18.560;2022-10-26T08:29:14;15.40;;;5.95;;
28796;SDS011;24974;54.444;18.560;2022-10-26T08:31:46;16.55;;;5.57;;
28796;SDS011;24974;54.444;18.560;2022-10-26T08:34:17;12.02;;;5.60;;
28796;SDS011;24974;54.444;18.560;2022-10-26T08:36:48;14.27;;;5.10;;
28796;SDS011;24974;54.444;18.560;2022-10-26T08:39:19;11.50;;;5.32;;
28796;SDS011;24974;54.444;18.560;2022-10-26T08:41:51;11.63;;;4.75;;
28796;SDS011;24974;54.444;18.560;2022-10-26T08:44:29;14.52;;;5.15;;
28796;SDS011;24974;54.444;18.560;2022-10-26T08:47:06;12.43;;;4.78;;
28796;SDS011;24974;54.444;18.560;2022-10-26T08:52:43;9.23;;;4.80;;
28796;SDS011;24974;54.444;18.560;2022-10-26T08:55:22;12.68;;;4.70;;
28796;SDS011;24974;54.444;18.560;2022-10-26T08:58:00;14.55;;;4.78;;
28796;SDS011;24974;54.444;18.560;2022-10-26T09:00:35;11.35;;;4.70;;
28796;SDS011;24974;54.444;18.560;2022-10-26T09:03:12;14.50;;;5.13;;
28796;SDS011;24974;54.444;18.560;2022-10-26T09:17:01;11.52;;;4.75;;
28796;SDS011;24974;54.444;18.560;2022-10-26T09:25:23;17.73;;;5.05;;
28796;SDS011;24974;54.444;18.560;2022-10-26T09:27:58;9.77;;;4.95;;
28796;SDS011;24974;54.444;18.560;2022-10-26T09:30:31;12.45;;;5.05;;
28796;SDS011;24974;54.444;18.560;2022-10-26T09:33:07;18.77;;;4.78;;
28796;SDS011;24974;54.444;18.560;2022-10-26T09:38:35;12.55;;;4.82;;
28796;SDS011;24974;54.444;18.560;2022-10-26T09:44:14;13.90;;;4.53;;
28796;SDS011;24974;54.444;18.560;2022-10-26T09:52:25;6.43;;;4.07;;
28796;SDS011;24974;54.444;18.560;2022-10-26T09:54:56;12.32;;;4.20;;
28796;SDS011;24974;54.444;18.560;2022-10-26T09:57:26;7.93;;;3.72;;
28796;SDS011;24974;54.444;18.560;2022-10-26T09:59:58;10.68;;;4.22;;
28796;SDS011;24974;54.444;18.560;2022-10-26T10:02:33;7.30;;;3.70;;
28796;SDS011;24974;54.444;18.560;2022-10-26T10:05:27;9.27;;;3.60;;
28796;SDS011;24974;54.444;18.560;2022-10-26T10:11:12;9.90;;;3.22;;
28796;SDS011;24974;54.444;18.560;2022-10-26T10:13:44;9.10;;;3.45;;
28796;SDS011;24974;54.444;18.560;2022-10-26T10:16:19;7.47;;;3.33;;
28796;SDS011;24974;54.444;18.560;2022-10-26T10:18:55;12.30;;;3.65;;
28796;SDS011;24974;54.444;18.560;2022-10-26T10:21:35;9.73;;;3.38;;
28796;SDS011;24974;54.444;18.560;2022-10-26T10:29:47;7.82;;;3.33;;
28796;SDS011;24974;54.444;18.560;2022-10-26T10:32:20;7.90;;;3.15;;
28796;SDS011;24974;54.444;18.560;2022-10-26T10:34:55;8.98;;;3.00;;
28796;SDS011;24974;54.444;18.560;2022-10-26T10:40:14;6.45;;;3.00;;
28796;SDS011;24974;54.444;18.560;2022-10-26T10:42:51;8.15;;;3.17;;
28796;SDS011;24974;54.444;18.560;2022-10-26T10:45:30;8.68;;;3.05;;
28796;SDS011;24974;54.444;18.560;2022-10-26T11:08:43;10.38;;;3.15;;
28796;SDS011;24974;54.444;18.560;2022-10-26T11:11:08;7.50;;;2.95;;
28796;SDS011;24974;54.444;18.560;2022-10-26T11:13:48;8.77;;;2.72;;
28796;SDS011;24974;54.444;18.560;2022-10-26T11:22:13;7.28;;;2.35;;
28796;SDS011;24974;54.444;18.560;2022-10-26T11:25:06;17.15;;;4.22;;
28796;SDS011;24974;54.444;18.560;2022-10-26T11:28:10;4.25;;;1.95;;
28796;SDS011;24974;54.444;18.560;2022-10-26T11:30:47;7.28;;;2.63;;
28796;SDS011;24974;54.444;18.560;2022-10-26T11:33:24;5.35;;;2.55;;
28796;SDS011;24974;54.444;18.560;2022-10-26T11:36:02;5.72;;;2.42;;
28796;SDS011;24974;54.444;18.560;2022-10-26T11:38:57;7.30;;;2.80;;
28796;SDS011;24974;54.444;18.560;2022-10-26T11:41:48;9.55;;;2.80;;
28796;SDS011;24974;54.444;18.560;2022-10-26T11:47:16;8.82;;;2.90;;
28796;SDS011;24974;54.444;18.560;2022-10-26T11:50:01;7.05;;;2.55;;
28796;SDS011;24974;54.444;18.560;2022-10-26T11:52:39;7.50;;;2.90;;
28796;SDS011;24974;54.444;18.560;2022-10-26T11:55:14;11.57;;;3.35;;
28796;SDS011;24974;54.444;18.560;2022-10-26T11:57:47;8.10;;;3.05;;
28796;SDS011;24974;54.444;18.560;2022-10-26T12:00:21;8.50;;;3.40;;
28796;SDS011;24974;54.444;18.560;2022-10-26T12:03:11;7.03;;;2.83;;
28796;SDS011;24974;54.444;18.560;2022-10-26T12:05:47;6.93;;;3.10;;
28796;SDS011;24974;54.444;18.560;2022-10-26T12:08:29;13.30;;;3.55;;
28796;SDS011;24974;54.444;18.560;2022-10-26T12:14:14;7.50;;;5.07;;
28796;SDS011;24974;54.444;18.560;2022-10-26T12:16:54;8.02;;;2.58;;
28796;SDS011;24974;54.444;18.560;2022-10-26T12:19:48;7.40;;;2.80;;
28796;SDS011;24974;54.444;18.560;2022-10-26T12:22:33;8.68;;;2.42;;
28796;SDS011;24974;54.444;18.560;2022-10-26T12:32:54;8.90;;;2.60;;
28796;SDS011;24974;54.444;18.560;2022-10-26T12:43:49;9.70;;;3.05;;
28796;SDS011;24974;54.444;18.560;2022-10-26T12:48:54;8.55;;;3.20;;
28796;SDS011;24974;54.444;18.560;2022-10-26T12:56:29;6.82;;;2.40;;
28796;SDS011;24974;54.444;18.560;2022-10-26T13:07:49;6.70;;;2.30;;
28796;SDS011;24974;54.444;18.560;2022-10-26T13:10:21;6.97;;;2.45;;
28796;SDS011;24974;54.444;18.560;2022-10-26T13:12:56;4.10;;;1.95;;
28796;SDS011;24974;54.444;18.560;2022-10-26T13:18:23;6.70;;;2.15;;
28796;SDS011;24974;54.444;18.560;2022-10-26T13:21:07;10.18;;;2.40;;
28796;SDS011;24974;54.444;18.560;2022-10-26T13:23:44;6.38;;;2.35;;
28796;SDS011;24974;54.444;18.560;2022-10-26T13:26:31;6.13;;;2.20;;
28796;SDS011;24974;54.444;18.560;2022-10-26T13:29:40;7.65;;;2.13;;
28796;SDS011;24974;54.444;18.560;2022-10-26T13:32:41;8.15;;;2.20;;
28796;SDS011;24974;54.444;18.560;2022-10-26T13:35:20;5.57;;;1.92;;
28796;SDS011;24974;54.444;18.560;2022-10-26T13:37:54;5.70;;;2.25;;
28796;SDS011;24974;54.444;18.560;2022-10-26T13:40:26;8.30;;;2.67;;
28796;SDS011;24974;54.444;18.560;2022-10-26T13:43:01;6.43;;;2.22;;
28796;SDS011;24974;54.444;18.560;2022-10-26T13:45:54;7.85;;;2.30;;
28796;SDS011;24974;54.444;18.560;2022-10-26T13:48:38;5.63;;;2.58;;
28796;SDS011;24974;54.444;18.560;2022-10-26T13:51:22;7.47;;;2.20;;
28796;SDS011;24974;54.444;18.560;2022-10-26T13:54:04;9.43;;;2.40;;
28796;SDS011;24974;54.444;18.560;2022-10-26T13:56:47;7.28;;;2.30;;
28796;SDS011;24974;54.444;18.560;2022-10-26T13:59:23;6.90;;;2.38;;
28796;SDS011;24974;54.444;18.560;2022-10-26T14:04:46;8.10;;;2.67;;
28796;SDS011;24974;54.444;18.560;2022-10-26T14:07:24;9.82;;;2.55;;
28796;SDS011;24974;54.444;18.560;2022-10-26T14:10:03;12.57;;;3.28;;
28796;SDS011;24974;54.444;18.560;2022-10-26T14:12:34;7.45;;;3.00;;
28796;SDS011;24974;54.444;18.560;2022-10-26T14:15:07;12.57;;;3.55;;
28796;SDS011;24974;54.444;18.560;2022-10-26T14:17:38;11.73;;;3.42;;
28796;SDS011;24974;54.444;18.560;2022-10-26T14:20:17;7.88;;;3.05;;
28796;SDS011;24974;54.444;18.560;2022-10-26T14:22:51;12.18;;;3.40;;
28796;SDS011;24974;54.444;18.560;2022-10-26T14:25:26;7.10;;;3.20;;
28796;SDS011;24974;54.444;18.560;2022-10-26T14:28:01;8.48;;;3.20;;
28796;SDS011;24974;54.444;18.560;2022-10-26T14:30:34;13.57;;;3.50;;
28796;SDS011;24974;54.444;18.560;2022-10-26T14:33:16;7.32;;;3.40;;
28796;SDS011;24974;54.444;18.560;2022-10-26T14:35:49;13.65;;;3.38;;
28796;SDS011;24974;54.444;18.560;2022-10-26T14:38:22;10.18;;;3.17;;
28796;SDS011;24974;54.444;18.560;2022-10-26T14:40:56;8.05;;;3.38;;
28796;SDS011;24974;54.444;18.560;2022-10-26T14:43:27;8.90;;;3.42;;
28796;SDS011;24974;54.444;18.560;2022-10-26T14:45:58;7.47;;;3.53;;
28796;SDS011;24974;54.444;18.560;2022-10-26T14:48:33;12.07;;;3.50;;
28796;SDS011;24974;54.444;18.560;2022-10-26T14:51:09;12.60;;;4.00;;
28796;SDS011;24974;54.444;18.560;2022-10-26T14:53:52;8.48;;;3.92;;
28796;SDS011;24974;54.444;18.560;2022-10-26T14:56:30;8.90;;;3.53;;
28796;SDS011;24974;54.444;18.560;2022-10-26T15:04:56;13.10;;;3.67;;
28796;SDS011;24974;54.444;18.560;2022-10-26T15:07:35;12.18;;;4.20;;
28796;SDS011;24974;54.444;18.560;2022-10-26T15:10:35;11.52;;;4.15;;
28796;SDS011;24974;54.444;18.560;2022-10-26T15:16:09;10.05;;;4.20;;
28796;SDS011;24974;54.444;18.560;2022-10-26T15:18:48;12.18;;;4.57;;
28796;SDS011;24974;54.444;18.560;2022-10-26T15:21:25;12.82;;;4.70;;
28796;SDS011;24974;54.444;18.560;2022-10-26T15:24:00;12.13;;;4.90;;
28796;SDS011;24974;54.444;18.560;2022-10-26T15:26:33;12.55;;;4.70;;
28796;SDS011;24974;54.444;18.560;2022-10-26T15:29:04;11.52;;;4.97;;
28796;SDS011;24974;54.444;18.560;2022-10-26T15:31:34;8.15;;;4.55;;
28796;SDS011;24974;54.444;18.560;2022-10-26T15:34:11;12.63;;;5.22;;
28796;SDS011;24974;54.444;18.560;2022-10-26T15:36:43;10.50;;;4.82;;
28796;SDS011;24974;54.444;18.560;2022-10-26T15:39:13;14.85;;;5.40;;
28796;SDS011;24974;54.444;18.560;2022-10-26T15:41:45;10.43;;;4.55;;
28796;SDS011;24974;54.444;18.560;2022-10-26T15:44:18;14.30;;;4.50;;
28796;SDS011;24974;54.444;18.560;2022-10-26T15:46:51;9.43;;;5.20;;
28796;SDS011;24974;54.444;18.560;2022-10-26T15:49:22;12.43;;;5.15;;
28796;SDS011;24974;54.444;18.560;2022-10-26T15:51:53;16.90;;;5.28;;
28796;SDS011;24974;54.444;18.560;2022-10-26T15:54:25;10.55;;;4.55;;
28796;SDS011;24974;54.444;18.560;2022-10-26T15:56:56;14.45;;;5.40;;
28796;SDS011;24974;54.444;18.560;2022-10-26T15:59:27;15.63;;;6.28;;
28796;SDS011;24974;54.444;18.560;2022-10-26T16:01:57;14.95;;;6.38;;
28796;SDS011;24974;54.444;18.560;2022-10-26T16:04:28;18.38;;;5.80;;
28796;SDS011;24974;54.444;18.560;2022-10-26T16:06:59;15.77;;;5.78;;
28796;SDS011;24974;54.444;18.560;2022-10-26T16:09:35;13.00;;;6.05;;
28796;SDS011;24974;54.444;18.560;2022-10-26T16:12:14;17.75;;;6.35;;
28796;SDS011;24974;54.444;18.560;2022-10-26T16:14:45;15.13;;;6.90;;
28796;SDS011;24974;54.444;18.560;2022-10-26T16:17:16;12.55;;;6.13;;
28796;SDS011;24974;54.444;18.560;2022-10-26T16:19:46;15.98;;;7.18;;
28796;SDS011;24974;54.444;18.560;2022-10-26T16:22:17;15.98;;;8.02;;
28796;SDS011;24974;54.444;18.560;2022-10-26T16:24:48;21.08;;;8.93;;
28796;SDS011;24974;54.444;18.560;2022-10-26T16:27:19;17.35;;;7.57;;
28796;SDS011;24974;54.444;18.560;2022-10-26T16:29:49;18.95;;;8.60;;
28796;SDS011;24974;54.444;18.560;2022-10-26T16:32:20;21.63;;;8.90;;
28796;SDS011;24974;54.444;18.560;2022-10-26T16:34:51;21.35;;;8.85;;
28796;SDS011;24974;54.444;18.560;2022-10-26T16:37:22;16.08;;;8.75;;
28796;SDS011;24974;54.444;18.560;2022-10-26T16:39:52;17.83;;;9.00;;
28796;SDS011;24974;54.444;18.560;2022-10-26T16:42:23;16.73;;;8.73;;
28796;SDS011;24974;54.444;18.560;2022-10-26T16:44:54;14.73;;;8.43;;
28796;SDS011;24974;54.444;18.560;2022-10-26T16:47:25;18.27;;;9.32;;
28796;SDS011;24974;54.444;18.560;2022-10-26T16:49:56;17.52;;;8.85;;
28796;SDS011;24974;54.444;18.560;2022-10-26T16:52:27;16.52;;;8.70;;
28796;SDS011;24974;54.444;18.560;2022-10-26T16:54:58;19.05;;;9.32;;
28796;SDS011;24974;54.444;18.560;2022-10-26T16:57:29;15.27;;;8.38;;
28796;SDS011;24974;54.444;18.560;2022-10-26T17:00:00;15.63;;;7.93;;
28796;SDS011;24974;54.444;18.560;2022-10-26T17:02:31;14.15;;;8.45;;
28796;SDS011;24974;54.444;18.560;2022-10-26T17:05:03;18.20;;;9.30;;
28796;SDS011;24974;54.444;18.560;2022-10-26T17:07:34;17.33;;;9.45;;
28796;SDS011;24974;54.444;18.560;2022-10-26T17:10:05;16.33;;;9.13;;
28796;SDS011;24974;54.444;18.560;2022-10-26T17:12:36;19.20;;;9.48;;
28796;SDS011;24974;54.444;18.560;2022-10-26T17:15:07;19.27;;;10.13;;
28796;SDS011;24974;54.444;18.560;2022-10-26T17:17:38;18.23;;;9.70;;
28796;SDS011;24974;54.444;18.560;2022-10-26T17:20:09;19.55;;;10.02;;
28796;SDS011;24974;54.444;18.560;2022-10-26T17:22:41;19.20;;;9.18;;
28796;SDS011;24974;54.444;18.560;2022-10-26T17:25:11;13.30;;;9.00;;
28796;SDS011;24974;54.444;18.560;2022-10-26T17:27:42;18.67;;;8.85;;
28796;SDS011;24974;54.444;18.560;2022-10-26T17:30:13;19.25;;;10.00;;
28796;SDS011;24974;54.444;18.560;2022-10-26T17:32:44;22.08;;;10.75;;
28796;SDS011;24974;54.444;18.560;2022-10-26T17:35:15;20.10;;;11.85;;
28796;SDS011;24974;54.444;18.560;2022-10-26T17:37:46;19.55;;;10.75;;
28796;SDS011;24974;54.444;18.560;2022-10-26T17:40:16;17.70;;;10.15;;
28796;SDS011;24974;54.444;18.560;2022-10-26T17:42:47;20.02;;;9.93;;
28796;SDS011;24974;54.444;18.560;2022-10-26T17:45:18;17.60;;;9.40;;
28796;SDS011;24974;54.444;18.560;2022-10-26T17:47:49;19.95;;;9.55;;
28796;SDS011;24974;54.444;18.560;2022-10-26T17:50:20;17.42;;;9.68;;
28796;SDS011;24974;54.444;18.560;2022-10-26T17:52:50;21.85;;;11.18;;
28796;SDS011;24974;54.444;18.560;2022-10-26T17:55:21;19.25;;;10.68;;
28796;SDS011;24974;54.444;18.560;2022-10-26T17:57:52;20.27;;;11.93;;
28796;SDS011;24974;54.444;18.560;2022-10-26T18:00:23;23.60;;;13.00;;
28796;SDS011;24974;54.444;18.560;2022-10-26T18:02:53;31.02;;;13.73;;
28796;SDS011;24974;54.444;18.560;2022-10-26T18:05:24;28.33;;;15.15;;
28796;SDS011;24974;54.444;18.560;2022-10-26T18:07:56;29.45;;;15.95;;
28796;SDS011;24974;54.444;18.560;2022-10-26T18:10:27;25.27;;;15.63;;
28796;SDS011;24974;54.444;18.560;2022-10-26T18:12:58;24.42;;;15.98;;
28796;SDS011;24974;54.444;18.560;2022-10-26T18:15:28;34.08;;;18.60;;
28796;SDS011;24974;54.444;18.560;2022-10-26T18:17:59;27.63;;;15.93;;
28796;SDS011;24974;54.444;18.560;2022-10-26T18:20:30;25.75;;;17.77;;
28796;SDS011;24974;54.444;18.560;2022-10-26T18:23:01;34.75;;;18.77;;
28796;SDS011;24974;54.444;18.560;2022-10-26T18:25:32;35.78;;;20.75;;
28796;SDS011;24974;54.444;18.560;2022-10-26T18:28:03;32.13;;;19.77;;
28796;SDS011;24974;54.444;18.560;2022-10-26T18:30:34;36.03;;;22.42;;
28796;SDS011;24974;54.444;18.560;2022-10-26T18:33:04;35.80;;;23.20;;
28796;SDS011;24974;54.444;18.560;2022-10-26T18:35:35;41.58;;;23.17;;
28796;SDS011;24974;54.444;18.560;2022-10-26T18:38:06;35.10;;;22.95;;
28796;SDS011;24974;54.444;18.560;2022-10-26T18:40:36;41.10;;;24.65;;
28796;SDS011;24974;54.444;18.560;2022-10-26T18:43:07;39.03;;;22.92;;
28796;SDS011;24974;54.444;18.560;2022-10-26T18:45:38;37.65;;;21.92;;
28796;SDS011;24974;54.444;18.560;2022-10-26T18:48:09;35.83;;;23.58;;
28796;SDS011;24974;54.444;18.560;2022-10-26T18:50:39;37.22;;;23.90;;
28796;SDS011;24974;54.444;18.560;2022-10-26T18:53:10;33.47;;;21.33;;
28796;SDS011;24974;54.444;18.560;2022-10-26T18:55:45;31.40;;;20.63;;
28796;SDS011;24974;54.444;18.560;2022-10-26T18:58:16;31.80;;;19.92;;
28796;SDS011;24974;54.444;18.560;2022-10-26T19:00:47;28.30;;;19.55;;
28796;SDS011;24974;54.444;18.560;2022-10-26T19:03:17;36.72;;;20.92;;
28796;SDS011;24974;54.444;18.560;2022-10-26T19:05:48;29.17;;;19.80;;
28796;SDS011;24974;54.444;18.560;2022-10-26T19:08:19;29.45;;;19.23;;
28796;SDS011;24974;54.444;18.560;2022-10-26T19:10:50;32.90;;;19.42;;
28796;SDS011;24974;54.444;18.560;2022-10-26T19:13:21;30.70;;;18.73;;
28796;SDS011;24974;54.444;18.560;2022-10-26T19:16:01;32.25;;;19.83;;
28796;SDS011;24974;54.444;18.560;2022-10-26T19:18:33;35.80;;;19.23;;
28796;SDS011;24974;54.444;18.560;2022-10-26T19:21:14;29.60;;;19.08;;
28796;SDS011;24974;54.444;18.560;2022-10-26T19:23:49;30.38;;;18.45;;
28796;SDS011;24974;54.444;18.560;2022-10-26T19:26:23;35.53;;;19.58;;
